sensor_id;sensor_type;location;lat;lon;timestamp;P1;P4;P2;P0;N10;N4;N25;N1;N05;TS
85848;SPS30;76335;48.226;16.370;2024-03-29T00:04:55;1.5;;1.5;1.5;;;;;;
85848;SPS30;76335;48.226;16.370;2024-03-29T00:09:55;1.5;;1.5;1.4;;;;;;
85848;SPS30;76335;48.226;16.370;2024-03-29T00:14:55;1.7;;1.7;1.6;;;;;;
85848;SPS30;76335;48.226;16.370;2024-03-29T00:19:55;1.5;;1.5;1.4;;;;;;
85848;SPS30;76335;48.226;16.370;2024-03-29T00:24:55;1.3;;1.3;1.2;;;;;;
85848;SPS30;76335;48.226;16.370;2024-03-29T00:29:55;1.4;;1.4;1.3;;;;;;
85848;SPS30;76335;48.226;16.370;2024-03-29T00:34:55;1.7;;1.7;1.7;;;;;;
85848;SPS30;76335;48.226;16.370;2024-03-29T00:39:55;1.4;;1.4;1.3;;;;;;
85848;SPS30;76335;48.226;16.370;2024-03-29T00:44:55;1.5;;1.5;1.4;;;;;;
85848;SPS30;76335;48.226;16.370;2024-03-29T00:49:55;1.3;;1.3;1.2;;;;;;
85848;SPS30;76335;48.226;16.370;2024-03-29T00:54:55;1.1;;1.1;1.1;;;;;;
85848;SPS30;76335;48.226;16.370;2024-03-29T00:59:55;1.6;;1.6;1.5;;;;;;
85848;SPS30;76335;48.226;16.370;2024-03-29T01:04:55;1.4;;1.4;1.4;;;;;;
85848;SPS30;76335;48.226;16.370;2024-03-29T01:09:55;1.3;;1.3;1.2;;;;;;
85848;SPS30;76335;48.226;16.370;2024-03-29T01:14:55;1.3;;1.3;1.2;;;;;;
85848;SPS30;76335;48.226;16.370;2024-03-29T01:19:55;1.7;;1.7;1.7;;;;;;
85848;SPS30;76335;48.226;16.370;2024-03-29T01:24:55;1.7;;1.8;1.6;;;;;;
85848;SPS30;76335;48.226;16.370;2024-03-29T01:29:55;1.9;;1.9;1.8;;;;;;
85848;SPS30;76335;48.226;16.370;2024-03-29T01:34:55;1.8;;1.8;1.7;;;;;;
85848;SPS30;76335;48.226;16.370;2024-03-29T01:39:55;1.8;;1.8;1.7;;;;;;
85848;SPS30;76335;48.226;16.370;2024-03-29T01:44:55;1.6;;1.6;1.5;;;;;;
85848;SPS30;76335;48.226;16.370;2024-03-29T01:49:55;1.6;;1.6;1.5;;;;;;
85848;SPS30;76335;48.226;16.370;2024-03-29T01:54:55;1.8;;1.8;1.7;;;;;;
85848;SPS30;76335;48.226;16.370;2024-03-29T01:59:55;1.5;;1.5;1.4;;;;;;
85848;SPS30;76335;48.226;16.370;2024-03-29T02:04:55;1.7;;1.7;1.6;;;;;;
85848;SPS30;76335;48.226;16.370;2024-03-29T02:09:55;1.4;;1.4;1.3;;;;;;
85848;SPS30;76335;48.226;16.370;2024-03-29T02:14:55;1.4;;1.4;1.3;;;;;;
85848;SPS30;76335;48.226;16.370;2024-03-29T02:19:55;1.5;;1.5;1.4;;;;;;
85848;SPS30;76335;48.226;16.370;2024-03-29T02:24:55;1.4;;1.4;1.3;;;;;;
85848;SPS30;76335;48.226;16.370;2024-03-29T02:29:55;1.4;;1.4;1.3;;;;;;
85848;SPS30;76335;48.226;16.370;2024-03-29T02:34:55;1.5;;1.5;1.4;;;;;;
85848;SPS30;76335;48.226;16.370;2024-03-29T02:39:55;1.7;;1.8;1.7;;;;;;
85848;SPS30;76335;48.226;16.370;2024-03-29T02:44:55;1.2;;1.2;1.1;;;;;;
85848;SPS30;76335;48.226;16.370;2024-03-29T02:49:55;1.6;;1.6;1.5;;;;;;
85848;SPS30;76335;48.226;16.370;2024-03-29T02:54:55;1.5;;1.5;1.4;;;;;;
85848;SPS30;76335;48.226;16.370;2024-03-29T02:59:56;1.6;;1.6;1.6;;;;;;
85848;SPS30;76335;48.226;16.370;2024-03-29T03:04:55;1.5;;1.5;1.5;;;;;;
85848;SPS30;76335;48.226;16.370;2024-03-29T03:09:55;1.6;;1.6;1.5;;;;;;
85848;SPS30;76335;48.226;16.370;2024-03-29T03:14:55;1.2;;1.2;1.1;;;;;;
85848;SPS30;76335;48.226;16.370;2024-03-29T03:19:55;1.3;;1.3;1.3;;;;;;
85848;SPS30;76335;48.226;16.370;2024-03-29T03:24:55;1.5;;1.5;1.4;;;;;;
85848;SPS30;76335;48.226;16.370;2024-03-29T03:29:55;1.8;;1.8;1.7;;;;;;
85848;SPS30;76335;48.226;16.370;2024-03-29T03:34:55;1.5;;1.5;1.4;;;;;;
85848;SPS30;76335;48.226;16.370;2024-03-29T03:39:55;1.5;;1.5;1.4;;;;;;
85848;SPS30;76335;48.226;16.370;2024-03-29T03:44:55;1.5;;1.6;1.5;;;;;;
85848;SPS30;76335;48.226;16.370;2024-03-29T03:49:55;1.7;;1.7;1.6;;;;;;
85848;SPS30;76335;48.226;16.370;2024-03-29T03:54:55;1.5;;1.5;1.4;;;;;;
85848;SPS30;76335;48.226;16.370;2024-03-29T03:59:55;1.5;;1.5;1.4;;;;;;
85848;SPS30;76335;48.226;16.370;2024-03-29T04:04:55;1.6;;1.6;1.5;;;;;;
85848;SPS30;76335;48.226;16.370;2024-03-29T04:09:55;1.7;;1.7;1.6;;;;;;
85848;SPS30;76335;48.226;16.370;2024-03-29T04:14:55;1.9;;1.9;1.8;;;;;;
85848;SPS30;76335;48.226;16.370;2024-03-29T04:19:55;1.1;;1.1;1.0;;;;;;
85848;SPS30;76335;48.226;16.370;2024-03-29T04:24:55;1.3;;1.3;1.2;;;;;;
85848;SPS30;76335;48.226;16.370;2024-03-29T04:29:55;1.3;;1.3;1.2;;;;;;
85848;SPS30;76335;48.226;16.370;2024-03-29T04:34:55;1.2;;1.2;1.1;;;;;;
85848;SPS30;76335;48.226;16.370;2024-03-29T04:39:55;1.3;;1.3;1.2;;;;;;
85848;SPS30;76335;48.226;16.370;2024-03-29T04:44:55;1.1;;1.1;1.0;;;;;;
85848;SPS30;76335;48.226;16.370;2024-03-29T04:49:55;1.4;;1.4;1.3;;;;;;
85848;SPS30;76335;48.226;16.370;2024-03-29T04:54:55;1.7;;1.7;1.6;;;;;;
85848;SPS30;76335;48.226;16.370;2024-03-29T04:59:55;1.3;;1.3;1.2;;;;;;
85848;SPS30;76335;48.226;16.370;2024-03-29T05:04:55;1.9;;2.0;1.9;;;;;;
85848;SPS30;76335;48.226;16.370;2024-03-29T05:09:55;1.2;;1.2;1.1;;;;;;
85848;SPS30;76335;48.226;16.370;2024-03-29T05:14:55;1.4;;1.4;1.3;;;;;;
85848;SPS30;76335;48.226;16.370;2024-03-29T05:19:55;1.1;;1.1;1.1;;;;;;
85848;SPS30;76335;48.226;16.370;2024-03-29T05:24:55;1.3;;1.3;1.2;;;;;;
85848;SPS30;76335;48.226;16.370;2024-03-29T05:29:55;1.5;;1.5;1.4;;;;;;
85848;SPS30;76335;48.226;16.370;2024-03-29T05:34:55;1.3;;1.3;1.3;;;;;;
85848;SPS30;76335;48.226;16.370;2024-03-29T05:39:55;1.6;;1.6;1.5;;;;;;
85848;SPS30;76335;48.226;16.370;2024-03-29T05:44:55;1.6;;1.6;1.5;;;;;;
85848;SPS30;76335;48.226;16.370;2024-03-29T05:49:55;1.4;;1.4;1.3;;;;;;
85848;SPS30;76335;48.226;16.370;2024-03-29T05:54:55;1.1;;1.2;1.1;;;;;;
85848;SPS30;76335;48.226;16.370;2024-03-29T05:59:55;1.8;;1.8;1.7;;;;;;
85848;SPS30;76335;48.226;16.370;2024-03-29T06:04:55;1.4;;1.4;1.3;;;;;;
85848;SPS30;76335;48.226;16.370;2024-03-29T06:09:55;1.2;;1.2;1.1;;;;;;
85848;SPS30;76335;48.226;16.370;2024-03-29T06:14:55;1.3;;1.3;1.2;;;;;;
85848;SPS30;76335;48.226;16.370;2024-03-29T06:19:55;1.4;;1.4;1.3;;;;;;
85848;SPS30;76335;48.226;16.370;2024-03-29T06:24:55;1.0;;1.0;1.0;;;;;;
85848;SPS30;76335;48.226;16.370;2024-03-29T06:29:55;1.2;;1.2;1.2;;;;;;
85848;SPS30;76335;48.226;16.370;2024-03-29T06:34:55;1.2;;1.2;1.1;;;;;;
85848;SPS30;76335;48.226;16.370;2024-03-29T06:39:55;1.4;;1.4;1.3;;;;;;
85848;SPS30;76335;48.226;16.370;2024-03-29T06:44:55;1.4;;1.4;1.3;;;;;;
85848;SPS30;76335;48.226;16.370;2024-03-29T06:49:55;1.3;;1.3;1.2;;;;;;
85848;SPS30;76335;48.226;16.370;2024-03-29T06:54:55;1.2;;1.2;1.1;;;;;;
85848;SPS30;76335;48.226;16.370;2024-03-29T06:59:55;1.4;;1.5;1.3;;;;;;
85848;SPS30;76335;48.226;16.370;2024-03-29T07:04:55;1.3;;1.3;1.2;;;;;;
85848;SPS30;76335;48.226;16.370;2024-03-29T07:09:55;1.3;;1.3;1.2;;;;;;
85848;SPS30;76335;48.226;16.370;2024-03-29T07:14:55;1.0;;1.0;0.9;;;;;;
85848;SPS30;76335;48.226;16.370;2024-03-29T07:19:55;1.5;;1.5;1.4;;;;;;
85848;SPS30;76335;48.226;16.370;2024-03-29T07:24:55;1.2;;1.2;1.1;;;;;;
85848;SPS30;76335;48.226;16.370;2024-03-29T07:29:55;1.3;;1.3;1.2;;;;;;
85848;SPS30;76335;48.226;16.370;2024-03-29T07:34:55;1.4;;1.4;1.3;;;;;;
85848;SPS30;76335;48.226;16.370;2024-03-29T07:39:55;1.1;;1.2;1.1;;;;;;
85848;SPS30;76335;48.226;16.370;2024-03-29T07:44:55;1.3;;1.3;1.2;;;;;;
85848;SPS30;76335;48.226;16.370;2024-03-29T07:49:55;1.6;;1.6;1.5;;;;;;
85848;SPS30;76335;48.226;16.370;2024-03-29T07:54:56;1.0;;1.1;1.0;;;;;;
85848;SPS30;76335;48.226;16.370;2024-03-29T07:59:55;1.3;;1.3;1.2;;;;;;
85848;SPS30;76335;48.226;16.370;2024-03-29T08:04:55;1.1;;1.2;1.0;;;;;;
85848;SPS30;76335;48.226;16.370;2024-03-29T08:09:55;1.3;;1.3;1.2;;;;;;
85848;SPS30;76335;48.226;16.370;2024-03-29T08:14:55;1.6;;1.6;1.5;;;;;;
85848;SPS30;76335;48.226;16.370;2024-03-29T08:19:56;1.6;;1.6;1.5;;;;;;
85848;SPS30;76335;48.226;16.370;2024-03-29T08:24:55;1.7;;1.8;1.6;;;;;;
85848;SPS30;76335;48.226;16.370;2024-03-29T08:29:55;1.2;;1.3;1.1;;;;;;
85848;SPS30;76335;48.226;16.370;2024-03-29T08:34:56;1.6;;1.7;1.5;;;;;;
85848;SPS30;76335;48.226;16.370;2024-03-29T08:39:55;1.7;;1.8;1.6;;;;;;
85848;SPS30;76335;48.226;16.370;2024-03-29T08:44:55;1.2;;1.3;1.1;;;;;;
85848;SPS30;76335;48.226;16.370;2024-03-29T08:49:55;1.5;;1.6;1.4;;;;;;
85848;SPS30;76335;48.226;16.370;2024-03-29T08:54:55;1.3;;1.4;1.2;;;;;;
85848;SPS30;76335;48.226;16.370;2024-03-29T08:59:55;1.5;;1.5;1.3;;;;;;
85848;SPS30;76335;48.226;16.370;2024-03-29T09:04:55;1.3;;1.4;1.2;;;;;;
85848;SPS30;76335;48.226;16.370;2024-03-29T09:09:55;1.6;;1.7;1.5;;;;;;
85848;SPS30;76335;48.226;16.370;2024-03-29T09:14:55;1.5;;1.6;1.3;;;;;;
85848;SPS30;76335;48.226;16.370;2024-03-29T09:19:55;1.4;;1.5;1.2;;;;;;
85848;SPS30;76335;48.226;16.370;2024-03-29T09:24:55;1.6;;1.7;1.4;;;;;;
85848;SPS30;76335;48.226;16.370;2024-03-29T09:29:55;1.4;;1.4;1.3;;;;;;
85848;SPS30;76335;48.226;16.370;2024-03-29T09:34:56;1.4;;1.5;1.3;;;;;;
85848;SPS30;76335;48.226;16.370;2024-03-29T09:39:55;1.7;;1.8;1.6;;;;;;
85848;SPS30;76335;48.226;16.370;2024-03-29T09:44:55;1.6;;1.7;1.4;;;;;;
85848;SPS30;76335;48.226;16.370;2024-03-29T09:49:55;1.6;;1.8;1.5;;;;;;
85848;SPS30;76335;48.226;16.370;2024-03-29T09:54:55;1.6;;1.8;1.5;;;;;;
85848;SPS30;76335;48.226;16.370;2024-03-29T09:59:56;1.3;;1.4;1.2;;;;;;
85848;SPS30;76335;48.226;16.370;2024-03-29T10:04:56;1.8;;1.9;1.6;;;;;;
85848;SPS30;76335;48.226;16.370;2024-03-29T10:09:55;1.3;;1.4;1.2;;;;;;
85848;SPS30;76335;48.226;16.370;2024-03-29T10:14:56;1.3;;1.4;1.2;;;;;;
85848;SPS30;76335;48.226;16.370;2024-03-29T10:19:58;1.2;;1.3;1.1;;;;;;
85848;SPS30;76335;48.226;16.370;2024-03-29T10:24:56;1.7;;1.8;1.6;;;;;;
85848;SPS30;76335;48.226;16.370;2024-03-29T10:29:55;1.3;;1.3;1.1;;;;;;
85848;SPS30;76335;48.226;16.370;2024-03-29T10:34:55;1.4;;1.4;1.3;;;;;;
85848;SPS30;76335;48.226;16.370;2024-03-29T10:39:55;1.4;;1.4;1.3;;;;;;
85848;SPS30;76335;48.226;16.370;2024-03-29T10:44:56;1.4;;1.4;1.3;;;;;;
85848;SPS30;76335;48.226;16.370;2024-03-29T10:49:55;1.1;;1.2;1.1;;;;;;
85848;SPS30;76335;48.226;16.370;2024-03-29T10:54:55;2.0;;2.0;1.8;;;;;;
85848;SPS30;76335;48.226;16.370;2024-03-29T11:00:00;1.2;;1.3;1.1;;;;;;
85848;SPS30;76335;48.226;16.370;2024-03-29T11:04:55;1.6;;1.7;1.5;;;;;;
85848;SPS30;76335;48.226;16.370;2024-03-29T11:09:56;1.9;;2.0;1.8;;;;;;
85848;SPS30;76335;48.226;16.370;2024-03-29T11:14:58;1.5;;1.5;1.3;;;;;;
85848;SPS30;76335;48.226;16.370;2024-03-29T11:19:55;1.2;;1.2;1.1;;;;;;
85848;SPS30;76335;48.226;16.370;2024-03-29T11:24:56;1.3;;1.3;1.1;;;;;;
85848;SPS30;76335;48.226;16.370;2024-03-29T11:29:55;1.7;;1.8;1.5;;;;;;
85848;SPS30;76335;48.226;16.370;2024-03-29T11:34:55;1.8;;2.0;1.7;;;;;;
85848;SPS30;76335;48.226;16.370;2024-03-29T11:39:55;1.3;;1.4;1.2;;;;;;
85848;SPS30;76335;48.226;16.370;2024-03-29T11:44:55;1.6;;1.8;1.5;;;;;;
85848;SPS30;76335;48.226;16.370;2024-03-29T11:49:56;1.6;;1.7;1.4;;;;;;
85848;SPS30;76335;48.226;16.370;2024-03-29T11:54:56;1.4;;1.5;1.3;;;;;;
85848;SPS30;76335;48.226;16.370;2024-03-29T11:59:56;1.3;;1.4;1.2;;;;;;
85848;SPS30;76335;48.226;16.370;2024-03-29T12:04:56;1.5;;1.6;1.4;;;;;;
85848;SPS30;76335;48.226;16.370;2024-03-29T12:09:56;1.7;;1.8;1.5;;;;;;
85848;SPS30;76335;48.226;16.370;2024-03-29T12:14:55;1.4;;1.5;1.3;;;;;;
85848;SPS30;76335;48.226;16.370;2024-03-29T12:19:58;1.4;;1.5;1.3;;;;;;
85848;SPS30;76335;48.226;16.370;2024-03-29T12:24:56;1.6;;1.6;1.4;;;;;;
85848;SPS30;76335;48.226;16.370;2024-03-29T12:29:55;1.7;;1.7;1.5;;;;;;
85848;SPS30;76335;48.226;16.370;2024-03-29T12:34:56;1.5;;1.5;1.4;;;;;;
85848;SPS30;76335;48.226;16.370;2024-03-29T12:39:55;1.3;;1.4;1.2;;;;;;
85848;SPS30;76335;48.226;16.370;2024-03-29T12:44:56;1.3;;1.4;1.2;;;;;;
85848;SPS30;76335;48.226;16.370;2024-03-29T12:49:55;1.3;;1.3;1.2;;;;;;
85848;SPS30;76335;48.226;16.370;2024-03-29T12:54:55;1.2;;1.3;1.2;;;;;;
85848;SPS30;76335;48.226;16.370;2024-03-29T12:59:56;1.5;;1.6;1.4;;;;;;
85848;SPS30;76335;48.226;16.370;2024-03-29T13:04:55;1.7;;1.8;1.6;;;;;;
85848;SPS30;76335;48.226;16.370;2024-03-29T13:09:56;1.8;;1.8;1.6;;;;;;
85848;SPS30;76335;48.226;16.370;2024-03-29T13:14:56;1.6;;1.7;1.5;;;;;;
85848;SPS30;76335;48.226;16.370;2024-03-29T13:19:55;1.4;;1.5;1.3;;;;;;
85848;SPS30;76335;48.226;16.370;2024-03-29T13:24:55;1.8;;1.9;1.7;;;;;;
85848;SPS30;76335;48.226;16.370;2024-03-29T13:29:56;1.6;;1.7;1.5;;;;;;
85848;SPS30;76335;48.226;16.370;2024-03-29T13:34:55;1.6;;1.6;1.5;;;;;;
85848;SPS30;76335;48.226;16.370;2024-03-29T13:39:55;1.6;;1.7;1.5;;;;;;
85848;SPS30;76335;48.226;16.370;2024-03-29T13:44:56;1.5;;1.5;1.4;;;;;;
85848;SPS30;76335;48.226;16.370;2024-03-29T13:49:56;1.2;;1.2;1.1;;;;;;
85848;SPS30;76335;48.226;16.370;2024-03-29T13:54:56;1.4;;1.5;1.3;;;;;;
85848;SPS30;76335;48.226;16.370;2024-03-29T13:59:56;1.8;;1.8;1.7;;;;;;
85848;SPS30;76335;48.226;16.370;2024-03-29T14:04:56;1.4;;1.4;1.3;;;;;;
85848;SPS30;76335;48.226;16.370;2024-03-29T14:09:56;1.3;;1.3;1.2;;;;;;
85848;SPS30;76335;48.226;16.370;2024-03-29T14:14:56;1.8;;1.8;1.7;;;;;;
85848;SPS30;76335;48.226;16.370;2024-03-29T14:19:56;1.2;;1.3;1.2;;;;;;
85848;SPS30;76335;48.226;16.370;2024-03-29T14:24:55;1.5;;1.6;1.5;;;;;;
85848;SPS30;76335;48.226;16.370;2024-03-29T14:29:55;1.3;;1.3;1.2;;;;;;
85848;SPS30;76335;48.226;16.370;2024-03-29T14:34:56;1.3;;1.4;1.3;;;;;;
85848;SPS30;76335;48.226;16.370;2024-03-29T14:39:55;1.2;;1.2;1.1;;;;;;
85848;SPS30;76335;48.226;16.370;2024-03-29T14:44:56;1.5;;1.5;1.4;;;;;;
85848;SPS30;76335;48.226;16.370;2024-03-29T14:49:56;1.3;;1.3;1.2;;;;;;
85848;SPS30;76335;48.226;16.370;2024-03-29T14:54:55;1.4;;1.5;1.4;;;;;;
85848;SPS30;76335;48.226;16.370;2024-03-29T14:59:56;1.2;;1.3;1.2;;;;;;
85848;SPS30;76335;48.226;16.370;2024-03-29T15:04:56;1.6;;1.6;1.5;;;;;;
85848;SPS30;76335;48.226;16.370;2024-03-29T15:09:56;1.0;;1.0;1.0;;;;;;
85848;SPS30;76335;48.226;16.370;2024-03-29T15:14:56;1.5;;1.5;1.4;;;;;;
85848;SPS30;76335;48.226;16.370;2024-03-29T15:19:56;1.9;;1.9;1.8;;;;;;
85848;SPS30;76335;48.226;16.370;2024-03-29T15:24:56;1.8;;1.8;1.7;;;;;;
85848;SPS30;76335;48.226;16.370;2024-03-29T15:29:56;1.5;;1.6;1.4;;;;;;
85848;SPS30;76335;48.226;16.370;2024-03-29T15:34:56;2.1;;2.1;1.9;;;;;;
85848;SPS30;76335;48.226;16.370;2024-03-29T15:39:56;1.6;;1.6;1.5;;;;;;
85848;SPS30;76335;48.226;16.370;2024-03-29T15:44:56;1.6;;1.6;1.6;;;;;;
85848;SPS30;76335;48.226;16.370;2024-03-29T15:49:56;1.4;;1.4;1.4;;;;;;
85848;SPS30;76335;48.226;16.370;2024-03-29T15:54:57;1.6;;1.6;1.6;;;;;;
85848;SPS30;76335;48.226;16.370;2024-03-29T15:59:56;2.7;;2.7;2.6;;;;;;
85848;SPS30;76335;48.226;16.370;2024-03-29T16:04:56;1.6;;1.6;1.5;;;;;;
85848;SPS30;76335;48.226;16.370;2024-03-29T16:09:57;1.4;;1.4;1.3;;;;;;
85848;SPS30;76335;48.226;16.370;2024-03-29T16:14:56;1.3;;1.3;1.2;;;;;;
85848;SPS30;76335;48.226;16.370;2024-03-29T16:19:56;1.4;;1.4;1.3;;;;;;
85848;SPS30;76335;48.226;16.370;2024-03-29T16:24:56;1.5;;1.5;1.4;;;;;;
85848;SPS30;76335;48.226;16.370;2024-03-29T16:29:56;1.3;;1.3;1.2;;;;;;
85848;SPS30;76335;48.226;16.370;2024-03-29T16:34:56;1.5;;1.5;1.4;;;;;;
85848;SPS30;76335;48.226;16.370;2024-03-29T16:39:56;1.3;;1.3;1.2;;;;;;
85848;SPS30;76335;48.226;16.370;2024-03-29T16:44:56;1.8;;1.8;1.7;;;;;;
85848;SPS30;76335;48.226;16.370;2024-03-29T16:49:56;1.3;;1.3;1.3;;;;;;
85848;SPS30;76335;48.226;16.370;2024-03-29T16:54:56;2.0;;2.0;2.0;;;;;;
85848;SPS30;76335;48.226;16.370;2024-03-29T16:59:56;1.8;;1.8;1.7;;;;;;
85848;SPS30;76335;48.226;16.370;2024-03-29T17:04:56;1.5;;1.5;1.5;;;;;;
85848;SPS30;76335;48.226;16.370;2024-03-29T17:09:56;1.5;;1.5;1.4;;;;;;
85848;SPS30;76335;48.226;16.370;2024-03-29T17:14:56;1.4;;1.4;1.4;;;;;;
85848;SPS30;76335;48.226;16.370;2024-03-29T17:19:56;2.0;;2.0;1.9;;;;;;
85848;SPS30;76335;48.226;16.370;2024-03-29T17:24:56;1.8;;1.8;1.7;;;;;;
85848;SPS30;76335;48.226;16.370;2024-03-29T17:29:56;1.2;;1.2;1.1;;;;;;
85848;SPS30;76335;48.226;16.370;2024-03-29T17:34:56;1.4;;1.4;1.3;;;;;;
85848;SPS30;76335;48.226;16.370;2024-03-29T17:39:56;1.3;;1.4;1.3;;;;;;
85848;SPS30;76335;48.226;16.370;2024-03-29T17:44:56;1.7;;1.7;1.6;;;;;;
85848;SPS30;76335;48.226;16.370;2024-03-29T17:49:56;1.4;;1.4;1.4;;;;;;
85848;SPS30;76335;48.226;16.370;2024-03-29T17:54:56;1.5;;1.5;1.4;;;;;;
85848;SPS30;76335;48.226;16.370;2024-03-29T17:59:56;1.3;;1.3;1.2;;;;;;
85848;SPS30;76335;48.226;16.370;2024-03-29T18:04:56;1.7;;1.7;1.6;;;;;;
85848;SPS30;76335;48.226;16.370;2024-03-29T18:09:56;1.6;;1.6;1.5;;;;;;
85848;SPS30;76335;48.226;16.370;2024-03-29T18:14:56;1.3;;1.3;1.2;;;;;;
85848;SPS30;76335;48.226;16.370;2024-03-29T18:19:56;1.7;;1.7;1.6;;;;;;
85848;SPS30;76335;48.226;16.370;2024-03-29T18:24:56;1.7;;1.7;1.7;;;;;;
85848;SPS30;76335;48.226;16.370;2024-03-29T18:29:56;2.0;;2.0;1.9;;;;;;
85848;SPS30;76335;48.226;16.370;2024-03-29T18:34:56;1.6;;1.6;1.5;;;;;;
85848;SPS30;76335;48.226;16.370;2024-03-29T18:39:56;1.4;;1.4;1.3;;;;;;
85848;SPS30;76335;48.226;16.370;2024-03-29T18:44:56;1.8;;1.8;1.7;;;;;;
85848;SPS30;76335;48.226;16.370;2024-03-29T18:49:56;1.7;;1.7;1.6;;;;;;
85848;SPS30;76335;48.226;16.370;2024-03-29T18:54:56;1.5;;1.5;1.4;;;;;;
85848;SPS30;76335;48.226;16.370;2024-03-29T18:59:56;1.5;;1.5;1.4;;;;;;
85848;SPS30;76335;48.226;16.370;2024-03-29T19:04:56;1.9;;1.9;1.8;;;;;;
85848;SPS30;76335;48.226;16.370;2024-03-29T19:09:56;1.7;;1.7;1.6;;;;;;
85848;SPS30;76335;48.226;16.370;2024-03-29T19:14:56;1.7;;1.7;1.6;;;;;;
85848;SPS30;76335;48.226;16.370;2024-03-29T19:19:56;1.7;;1.7;1.6;;;;;;
85848;SPS30;76335;48.226;16.370;2024-03-29T19:24:56;1.7;;1.7;1.7;;;;;;
85848;SPS30;76335;48.226;16.370;2024-03-29T19:29:56;1.4;;1.4;1.3;;;;;;
85848;SPS30;76335;48.226;16.370;2024-03-29T19:34:56;1.6;;1.6;1.5;;;;;;
85848;SPS30;76335;48.226;16.370;2024-03-29T19:39:56;2.0;;2.0;1.9;;;;;;
85848;SPS30;76335;48.226;16.370;2024-03-29T19:44:56;2.2;;2.2;2.1;;;;;;
85848;SPS30;76335;48.226;16.370;2024-03-29T19:49:56;1.9;;1.9;1.8;;;;;;
85848;SPS30;76335;48.226;16.370;2024-03-29T19:54:56;2.5;;2.5;2.4;;;;;;
85848;SPS30;76335;48.226;16.370;2024-03-29T19:59:56;2.6;;2.6;2.5;;;;;;
85848;SPS30;76335;48.226;16.370;2024-03-29T20:04:56;3.7;;3.7;3.5;;;;;;
85848;SPS30;76335;48.226;16.370;2024-03-29T20:09:56;5.1;;5.1;4.9;;;;;;
85848;SPS30;76335;48.226;16.370;2024-03-29T20:14:56;3.9;;3.9;3.7;;;;;;
85848;SPS30;76335;48.226;16.370;2024-03-29T20:19:56;3.9;;3.9;3.7;;;;;;
85848;SPS30;76335;48.226;16.370;2024-03-29T20:24:56;4.8;;4.8;4.6;;;;;;
85848;SPS30;76335;48.226;16.370;2024-03-29T20:29:56;5.4;;5.4;5.1;;;;;;
85848;SPS30;76335;48.226;16.370;2024-03-29T20:34:56;5.9;;5.9;5.6;;;;;;
85848;SPS30;76335;48.226;16.370;2024-03-29T20:39:56;4.7;;4.7;4.4;;;;;;
85848;SPS30;76335;48.226;16.370;2024-03-29T20:44:56;3.8;;3.8;3.7;;;;;;
85848;SPS30;76335;48.226;16.370;2024-03-29T20:49:56;3.5;;3.5;3.4;;;;;;
85848;SPS30;76335;48.226;16.370;2024-03-29T20:54:56;3.6;;3.6;3.4;;;;;;
85848;SPS30;76335;48.226;16.370;2024-03-29T20:59:56;4.0;;4.0;3.8;;;;;;
85848;SPS30;76335;48.226;16.370;2024-03-29T21:04:56;2.4;;2.4;2.3;;;;;;
85848;SPS30;76335;48.226;16.370;2024-03-29T21:09:56;2.5;;2.5;2.4;;;;;;
85848;SPS30;76335;48.226;16.370;2024-03-29T21:14:56;2.4;;2.4;2.3;;;;;;
85848;SPS30;76335;48.226;16.370;2024-03-29T21:19:56;2.1;;2.1;2.0;;;;;;
85848;SPS30;76335;48.226;16.370;2024-03-29T21:24:56;2.1;;2.1;2.0;;;;;;
85848;SPS30;76335;48.226;16.370;2024-03-29T21:29:56;2.1;;2.1;2.0;;;;;;
85848;SPS30;76335;48.226;16.370;2024-03-29T21:34:56;2.6;;2.6;2.5;;;;;;
85848;SPS30;76335;48.226;16.370;2024-03-29T21:39:56;3.2;;3.2;3.0;;;;;;
85848;SPS30;76335;48.226;16.370;2024-03-29T21:44:56;2.6;;2.6;2.5;;;;;;
85848;SPS30;76335;48.226;16.370;2024-03-29T21:49:56;3.2;;3.2;3.1;;;;;;
85848;SPS30;76335;48.226;16.370;2024-03-29T21:54:56;3.3;;3.3;3.1;;;;;;
85848;SPS30;76335;48.226;16.370;2024-03-29T21:59:56;3.0;;3.0;2.9;;;;;;
85848;SPS30;76335;48.226;16.370;2024-03-29T22:04:56;2.8;;2.8;2.7;;;;;;
85848;SPS30;76335;48.226;16.370;2024-03-29T22:09:56;2.9;;2.9;2.8;;;;;;
85848;SPS30;76335;48.226;16.370;2024-03-29T22:14:56;2.4;;2.4;2.3;;;;;;
85848;SPS30;76335;48.226;16.370;2024-03-29T22:19:56;2.6;;2.6;2.5;;;;;;
85848;SPS30;76335;48.226;16.370;2024-03-29T22:24:56;2.2;;2.2;2.1;;;;;;
85848;SPS30;76335;48.226;16.370;2024-03-29T22:29:56;3.1;;3.1;2.9;;;;;;
85848;SPS30;76335;48.226;16.370;2024-03-29T22:34:56;2.8;;2.8;2.7;;;;;;
85848;SPS30;76335;48.226;16.370;2024-03-29T22:39:56;3.0;;3.0;2.8;;;;;;
85848;SPS30;76335;48.226;16.370;2024-03-29T22:44:56;2.3;;2.3;2.2;;;;;;
85848;SPS30;76335;48.226;16.370;2024-03-29T22:49:56;2.7;;2.7;2.6;;;;;;
85848;SPS30;76335;48.226;16.370;2024-03-29T22:54:56;2.7;;2.7;2.6;;;;;;
85848;SPS30;76335;48.226;16.370;2024-03-29T22:59:56;2.8;;2.8;2.7;;;;;;
85848;SPS30;76335;48.226;16.370;2024-03-29T23:04:56;2.7;;2.7;2.6;;;;;;
85848;SPS30;76335;48.226;16.370;2024-03-29T23:09:56;2.9;;2.9;2.7;;;;;;
85848;SPS30;76335;48.226;16.370;2024-03-29T23:14:56;3.3;;3.3;3.1;;;;;;
85848;SPS30;76335;48.226;16.370;2024-03-29T23:19:56;3.1;;3.1;2.9;;;;;;
85848;SPS30;76335;48.226;16.370;2024-03-29T23:24:56;3.2;;3.2;3.1;;;;;;
85848;SPS30;76335;48.226;16.370;2024-03-29T23:29:56;2.9;;2.9;2.8;;;;;;
85848;SPS30;76335;48.226;16.370;2024-03-29T23:34:56;2.6;;2.6;2.5;;;;;;
85848;SPS30;76335;48.226;16.370;2024-03-29T23:39:56;3.1;;3.1;3.0;;;;;;
85848;SPS30;76335;48.226;16.370;2024-03-29T23:44:56;3.6;;3.6;3.4;;;;;;
85848;SPS30;76335;48.226;16.370;2024-03-29T23:49:56;3.2;;3.2;3.1;;;;;;
85848;SPS30;76335;48.226;16.370;2024-03-29T23:54:59;3.7;;3.7;3.5;;;;;;
85848;SPS30;76335;48.226;16.370;2024-03-29T23:59:57;3.2;;3.2;3.1;;;;;;
